createdAt,value
2019-06-07T00:03:32.232Z,72.91
2019-06-07T00:08:37.871Z,72.79
2019-06-07T00:13:43.176Z,73.77
2019-06-07T00:18:48.470Z,73.32
2019-06-07T00:23:54.416Z,74.01
2019-06-07T00:29:02.616Z,74.47
2019-06-07T00:34:10.319Z,71.85
2019-06-07T00:39:20.298Z,71.47
2019-06-07T00:44:23.494Z,72.13
2019-06-07T00:49:40.339Z,75.14
2019-06-07T00:54:37.993Z,72.23
2019-06-07T00:59:43.120Z,73.09
2019-06-07T01:04:48.548Z,72.64
2019-06-07T01:09:53.970Z,74.11
2019-06-07T01:14:59.194Z,75.53
2019-06-07T01:20:06.407Z,75.60
2019-06-07T01:25:13.753Z,75.05
2019-06-07T01:30:23.269Z,74.79
2019-06-07T01:35:26.964Z,75.54
2019-06-07T01:40:33.777Z,75.45
2019-06-07T01:45:39.956Z,76.54
2019-06-07T01:50:45.472Z,78.19
2019-06-07T01:55:51.073Z,81.00
2019-06-07T02:00:56.418Z,80.98
2019-06-07T02:06:01.766Z,83.24
2019-06-07T02:11:07.244Z,86.02
2019-06-07T02:16:14.625Z,87.62
2019-06-07T02:21:23.151Z,85.63
2019-06-07T02:26:30.009Z,84.96
2019-06-07T02:31:39.068Z,86.92
2019-06-07T02:36:41.898Z,85.29
2019-06-07T02:41:47.573Z,86.66
2019-06-07T02:46:52.847Z,87.74
2019-06-07T02:51:58.224Z,86.75
2019-06-07T02:57:05.110Z,86.36
2019-06-07T03:02:10.271Z,87.20
2019-06-07T03:07:17.580Z,87.24
2019-06-07T03:12:23.501Z,87.10
2019-06-07T03:17:47.921Z,85.41
2019-06-07T03:22:53.430Z,87.06
2019-06-07T03:27:58.836Z,85.11
2019-06-07T03:33:04.296Z,85.88
2019-06-07T03:38:09.733Z,85.26
2019-06-07T03:43:14.892Z,85.45
2019-06-07T03:48:20.539Z,85.70
2019-06-07T03:53:29.211Z,85.69
2019-06-07T03:58:44.629Z,85.03
2019-06-07T04:03:46.972Z,84.96
2019-06-07T04:08:48.487Z,84.73
2019-06-07T04:13:53.834Z,86.77
2019-06-07T04:18:59.011Z,85.72
2019-06-07T04:24:04.515Z,84.73
2019-06-07T04:29:32.245Z,85.28
2019-06-07T04:34:16.654Z,86.26
2019-06-07T04:39:23.670Z,85.55
2019-06-07T04:44:28.992Z,83.61
2019-06-07T04:49:39.227Z,81.00
2019-06-07T04:54:45.845Z,80.83
2019-06-07T05:00:33.746Z,81.33
2019-06-07T05:04:56.895Z,80.00
2019-06-07T05:10:02.491Z,78.29
2019-06-07T05:15:08.029Z,76.93
2019-06-07T05:20:14.261Z,76.46
2019-06-07T05:25:19.645Z,76.43
2019-06-07T05:35:44.806Z,76.97
2019-06-07T05:40:50.030Z,77.78
2019-06-07T05:45:55.494Z,76.22
2019-06-07T05:51:00.819Z,72.73
2019-06-07T05:56:06.438Z,71.63
2019-06-07T06:01:41.999Z,71.36
2019-06-07T06:06:19.533Z,66.45
2019-06-07T06:11:42.973Z,70.37
2019-06-07T06:16:31.963Z,71.40
2019-06-07T06:21:38.535Z,67.99
2019-06-07T06:26:51.189Z,63.14
2019-06-07T06:32:39.444Z,69.72
2019-06-07T06:36:58.617Z,70.16
2019-06-07T06:42:04.044Z,70.53
2019-06-07T06:47:09.139Z,71.26
2019-06-07T06:52:14.349Z,72.00
2019-06-07T06:57:21.985Z,71.87
2019-06-07T07:02:28.785Z,70.12
2019-06-07T07:07:36.239Z,67.78
2019-06-07T07:12:42.920Z,71.32
2019-06-07T07:18:00.683Z,72.45
2019-06-07T07:22:57.077Z,71.52
2019-06-07T07:28:02.677Z,72.31
2019-06-07T07:33:07.946Z,74.32
2019-06-07T07:38:15.009Z,72.26
2019-06-07T07:43:22.135Z,72.24
2019-06-07T07:48:27.310Z,72.43
2019-06-07T07:53:48.583Z,71.28
2019-06-07T07:58:41.840Z,69.14
2019-06-07T08:03:48.157Z,69.61
2019-06-07T08:08:57.029Z,68.71
2019-06-07T08:14:05.180Z,69.17
2019-06-07T08:19:14.754Z,67.91
2019-06-07T08:24:20.008Z,68.89
2019-06-07T08:29:43.844Z,67.21
2019-06-07T08:34:35.006Z,67.34
2019-06-07T08:39:41.664Z,66.67
2019-06-07T08:44:47.267Z,67.75
2019-06-07T08:49:59.606Z,67.43
2019-06-07T08:55:04.921Z,66.29
2019-06-07T09:00:42.561Z,65.75
2019-06-07T09:05:20.887Z,64.08
2019-06-07T09:10:26.487Z,61.76
2019-06-07T09:15:31.875Z,62.68
2019-06-07T09:20:51.261Z,63.38
2019-06-07T09:26:07.917Z,66.57
2019-06-07T09:31:10.386Z,68.60
2019-06-07T09:36:14.921Z,67.77
2019-06-07T09:41:21.664Z,68.29
2019-06-07T09:46:27.229Z,65.03
2019-06-07T09:51:32.361Z,63.91
2019-06-07T09:56:39.237Z,63.56
2019-06-07T10:01:44.582Z,64.04
2019-06-07T10:06:50.563Z,62.98
2019-06-07T10:11:58.207Z,66.21
2019-06-07T10:17:03.437Z,64.97
2019-06-07T10:22:09.710Z,68.09
2019-06-07T10:27:15.010Z,69.39
2019-06-07T10:32:20.293Z,67.10
2019-06-07T10:37:25.873Z,67.41
2019-06-07T10:42:34.419Z,67.75
2019-06-07T10:47:39.708Z,67.54
2019-06-07T10:52:44.855Z,65.31
2019-06-07T10:57:50.941Z,64.67
2019-06-07T11:02:56.541Z,65.42
2019-06-07T11:08:01.779Z,66.13
2019-06-07T11:13:08.248Z,65.28
2019-06-07T11:18:14.466Z,62.45
2019-06-07T11:23:21.032Z,63.79
2019-06-07T11:28:28.205Z,65.62
2019-06-07T11:33:33.427Z,64.29
2019-06-07T11:38:40.990Z,65.68
2019-06-07T11:43:48.571Z,65.54
2019-06-07T11:48:53.902Z,64.46
2019-06-07T11:53:59.044Z,65.79
2019-06-07T11:59:04.362Z,64.82
2019-06-07T12:04:09.606Z,66.26
2019-06-07T12:09:16.670Z,62.89
2019-06-07T12:14:21.800Z,64.86
2019-06-07T12:19:27.082Z,64.27
2019-06-07T12:24:32.838Z,64.72
2019-06-07T12:29:38.003Z,64.35
2019-06-07T12:34:45.758Z,62.79
2019-06-07T12:39:51.052Z,64.04
2019-06-07T12:44:57.021Z,63.99
2019-06-07T12:50:02.445Z,63.17
2019-06-07T12:55:07.831Z,61.77
2019-06-07T13:00:16.139Z,61.77
2019-06-07T13:05:23.883Z,62.16
2019-06-07T13:10:32.073Z,62.99
2019-06-07T13:15:37.262Z,61.41
2019-06-07T13:20:44.682Z,62.66
2019-06-07T13:25:50.085Z,63.35
2019-06-07T13:30:55.346Z,60.75
2019-06-07T13:36:00.819Z,59.15
2019-06-07T13:41:05.999Z,60.79
2019-06-07T13:46:13.028Z,59.68
2019-06-07T13:51:19.190Z,58.93
2019-06-07T13:56:26.074Z,60.37
2019-06-07T14:01:32.410Z,61.13
2019-06-07T14:06:37.837Z,60.80
2019-06-07T14:11:50.439Z,59.42
2019-06-07T14:16:51.990Z,60.31
2019-06-07T14:21:57.520Z,56.55
2019-06-07T14:27:09.000Z,57.27
2019-06-07T14:32:14.249Z,58.95
2019-06-07T14:37:19.498Z,58.29
2019-06-07T14:42:25.375Z,59.62
2019-06-07T14:47:32.009Z,58.52
2019-06-07T14:52:37.371Z,60.40
2019-06-07T14:57:44.133Z,59.65
2019-06-07T15:02:50.693Z,59.21
2019-06-07T15:07:56.145Z,60.16
2019-06-07T15:13:01.408Z,56.61
2019-06-07T15:18:07.612Z,58.25
2019-06-07T15:23:13.768Z,57.71
2019-06-07T15:28:19.295Z,57.47
2019-06-07T15:33:24.501Z,58.77
2019-06-07T15:38:31.039Z,59.45
2019-06-07T15:43:37.397Z,58.09
2019-06-07T15:48:45.015Z,56.59
2019-06-07T15:53:50.199Z,57.31
2019-06-07T15:58:55.468Z,57.79
2019-06-07T16:04:00.754Z,58.61
2019-06-07T16:09:08.366Z,59.42
2019-06-07T16:14:14.915Z,59.32
2019-06-07T16:19:20.117Z,57.92
2019-06-07T16:24:25.259Z,56.82
2019-06-07T16:29:30.556Z,56.01
2019-06-07T16:34:37.811Z,55.51
2019-06-07T16:39:42.794Z,55.30
2019-06-07T16:44:50.420Z,55.81
2019-06-07T16:49:55.614Z,56.84
2019-06-07T16:55:01.164Z,57.24
2019-06-07T17:00:07.354Z,57.50
2019-06-07T17:05:14.219Z,57.76
2019-06-07T17:10:20.046Z,58.13
2019-06-07T17:15:28.671Z,57.16
2019-06-07T17:20:33.828Z,56.40
2019-06-07T17:25:39.509Z,56.04
2019-06-07T17:30:46.094Z,56.73
2019-06-07T17:35:52.381Z,57.52
2019-06-07T17:40:57.613Z,57.51
2019-06-07T17:46:02.812Z,57.92
2019-06-07T17:51:09.111Z,58.90
2019-06-07T17:56:14.521Z,58.51
2019-06-07T18:01:21.758Z,59.28
2019-06-07T18:06:27.161Z,61.23
2019-06-07T18:11:32.524Z,62.47
2019-06-07T18:16:38.043Z,62.98
2019-06-07T18:21:44.883Z,63.18
2019-06-07T18:26:50.546Z,64.13
2019-06-07T18:31:56.269Z,68.30
2019-06-07T18:37:01.532Z,71.51
2019-06-07T18:42:06.861Z,72.34
2019-06-07T18:47:12.193Z,74.58
2019-06-07T18:52:21.313Z,75.45
2019-06-07T18:57:26.737Z,77.34
2019-06-07T19:02:31.927Z,78.31
2019-06-07T19:07:37.137Z,79.24
2019-06-07T19:12:43.434Z,79.68
2019-06-07T19:17:49.728Z,81.03
2019-06-07T19:22:56.382Z,81.35
2019-06-07T19:28:01.859Z,82.43
2019-06-07T19:33:07.351Z,83.88
2019-06-07T19:38:12.591Z,84.86
2019-06-07T19:43:17.786Z,85.07
2019-06-07T19:48:22.998Z,85.54
2019-06-07T19:53:28.322Z,86.30
2019-06-07T19:58:33.848Z,86.69
2019-06-07T20:03:40.010Z,87.32
2019-06-07T20:08:45.304Z,87.84
2019-06-07T20:13:50.754Z,87.84
2019-06-07T20:18:56.280Z,88.00
2019-06-07T20:24:17.629Z,87.91
2019-06-07T20:29:24.818Z,88.73
2019-06-07T20:34:16.671Z,89.37
2019-06-07T20:39:22.235Z,89.94
2019-06-07T20:44:27.749Z,90.43
2019-06-07T20:49:33.128Z,91.33
2019-06-07T20:54:38.264Z,91.70
2019-06-07T20:59:43.567Z,91.22
2019-06-07T21:04:48.818Z,90.81
2019-06-07T21:09:54.124Z,90.79
2019-06-07T21:15:02.141Z,90.60
2019-06-07T21:20:08.147Z,90.83
2019-06-07T21:25:13.966Z,90.72
2019-06-07T21:30:19.250Z,90.54
2019-06-07T21:35:26.102Z,91.10
2019-06-07T21:40:33.097Z,90.98
2019-06-07T21:45:38.722Z,91.31
2019-06-07T21:50:46.745Z,90.96
2019-06-07T21:55:51.989Z,90.79
2019-06-07T22:01:23.422Z,90.99
2019-06-07T22:06:28.535Z,90.74
2019-06-07T22:11:34.165Z,90.77
2019-06-07T22:16:40.448Z,90.41
2019-06-07T22:21:59.248Z,89.40
2019-06-07T22:26:52.950Z,88.52
2019-06-07T22:31:58.863Z,88.46
2019-06-07T22:37:05.092Z,88.00
2019-06-07T22:42:11.972Z,88.81
2019-06-07T22:47:18.316Z,89.11
2019-06-07T22:52:23.568Z,88.96
2019-06-07T22:57:30.765Z,88.77
2019-06-07T23:02:36.084Z,88.04
2019-06-07T23:07:41.347Z,86.66
2019-06-07T23:12:46.574Z,86.15
2019-06-07T23:17:51.908Z,85.86
2019-06-07T23:22:57.188Z,85.11
2019-06-07T23:28:02.364Z,85.09
2019-06-07T23:33:07.905Z,83.19
2019-06-07T23:38:13.257Z,82.95
2019-06-07T23:43:19.620Z,83.26
2019-06-07T23:48:25.031Z,82.69
2019-06-07T23:53:30.285Z,82.17
2019-06-07T23:58:35.441Z,81.64
